Nearby METAR Reports

 

YSRI - Richmond (aus-Af, Australia
Distance from station: SW 65km
Updated: 05/12/2021 12:21
Overcast
Overcast
 Wind from SSE
Wind: SSE 13 km/h
Temperature: 15°C
Dew Point: 15°C
Humidity: 100%
Barometer: 1022 hPa
Clouds: Overcast
Visibility: 8 km
Cloud details: Partly cloudy 549 m
Partly cloudy 671 m
Overcast 1219 m
2021/12/05 01:21 YSRI 050121Z AUTO 15007KT 8000 // SCT018 SCT022 OVC040 15/15 Q1022
YWLM - Williamtown Arp, Australia
Distance from station: NE 69km
Updated: 05/12/2021 12:00
Overcast
Overcast
 Wind from SE
Wind: SE 28 km/h
Temperature: 21°C
Dew Point: 13°C
Humidity: 60%
Barometer: 1021 hPa
Clouds: Overcast
Visibility: 10 km
Cloud details: Overcast 1250 m
Overcast 1615 m
2021/12/05 01:00 YWLM 050100Z AUTO 14015KT 9999 // OVC041 OVC053 21/13 Q1021
 
YSSY - Sydney Intl Airp, Australia
Distance from station: SSW 77km
Updated: 05/12/2021 12:00
Nearby showers, Mostly cloudy
Nearby showers, Mostly cloudy
 Wind from SE
Wind: SE 30 km/h
Temperature: 19°C
Dew Point: 12°C
Humidity: 64%
Barometer: 1022 hPa
Summary: Nearby Showers
Clouds: Mostly cloudy
Visibility: 10 km
Cloud details: Few Clouds 457 m
Partly cloudy 762 m
Mostly cloudy 1067 m
2021/12/05 01:00 YSSY 050100Z 13016KT 9999 VCSH FEW015 SCT025 BKN035 19/12 Q1022